Time;durP1;ratioP1;P1;durP2;ratioP2;P2;SDS_P1;SDS_P2;PMS_P1;PMS_P2;Temp;Humidity;BMP_temperature;BMP_pressure;BME280_temperature;BME280_humidity;BME280_pressure;Samples;Min_cycle;Max_cycle;Signal;HPM_P1;HPM_P2
2021/12/20 00:01:11;;;;;;;33.60;24.90;;;28.20;84.50;;;;;;5066136;28;20049;-52
2021/12/20 00:03:38;;;;;;;32.10;22.17;;;28.20;85.00;;;;;;5066627;28;20205;-48
2021/12/20 00:06:04;;;;;;;34.35;19.05;;;28.20;84.50;;;;;;5066163;28;20076;-46
2021/12/20 00:08:31;;;;;;;25.77;16.35;;;28.20;84.50;;;;;;5065077;28;20033;-49
2021/12/20 00:10:58;;;;;;;21.40;13.63;;;28.20;84.50;;;;;;5066084;28;20033;-49
2021/12/20 00:13:24;;;;;;;19.27;12.32;;;28.20;84.50;;;;;;5066445;28;20064;-50
2021/12/20 00:15:51;;;;;;;19.70;11.65;;;28.20;84.50;;;;;;5066024;28;20025;-49
2021/12/20 00:18:18;;;;;;;20.20;11.05;;;28.20;84.50;;;;;;5066136;28;20237;-49
2021/12/20 00:20:44;;;;;;;14.70;9.85;;;28.20;84.60;;;;;;5065837;28;20018;-51
2021/12/20 00:23:11;;;;;;;14.70;9.57;;;28.10;84.50;;;;;;5066166;28;20029;-50
2021/12/20 00:25:37;;;;;;;13.82;9.70;;;28.10;84.40;;;;;;5065730;28;20244;-47
2021/12/20 00:28:04;;;;;;;13.43;8.68;;;28.10;84.40;;;;;;5065612;28;20407;-56
2021/12/20 00:30:33;;;;;;;17.90;12.98;;;28.10;84.40;;;;;;5065723;28;20036;-49
2021/12/20 00:32:59;;;;;;;14.38;9.27;;;28.10;84.30;;;;;;5065373;28;20040;-49
2021/12/20 00:35:26;;;;;;;12.57;8.30;;;28.10;84.30;;;;;;5065630;28;20012;-49
2021/12/20 00:40:38;;;;;;;12.13;7.88;;;28.10;84.50;;;;;;5065661;28;20039;-51
2021/12/20 00:43:06;;;;;;;14.02;8.30;;;28.00;84.30;;;;;;5065667;28;20067;-51
2021/12/20 00:45:37;;;;;;;14.68;7.75;;;28.00;84.10;;;;;;5065256;28;20013;-48
2021/12/20 00:48:05;;;;;;;13.60;7.10;;;28.00;84.00;;;;;;5065621;28;20028;-47
2021/12/20 00:50:32;;;;;;;12.57;7.03;;;28.00;84.00;;;;;;5065307;28;20071;-45
2021/12/20 00:52:59;;;;;;;11.95;6.82;;;28.00;84.00;;;;;;5065190;28;20074;-50
2021/12/20 00:55:27;;;;;;;9.75;6.07;;;28.00;84.00;;;;;;5065356;28;20044;-49
2021/12/20 00:57:55;;;;;;;10.18;6.32;;;28.00;84.00;;;;;;5065272;28;20093;-50
2021/12/20 01:00:44;;;;;;;14.73;6.05;;;28.00;83.90;;;;;;5056908;28;20077;-43
2021/12/20 01:03:13;;;;;;;7.40;5.45;;;27.90;83.20;;;;;;5051262;28;20213;-45
2021/12/20 01:05:40;;;;;;;7.45;5.18;;;27.90;83.10;;;;;;5065197;28;20417;-45
2021/12/20 01:08:08;;;;;;;10.65;6.20;;;27.80;82.70;;;;;;5065386;28;20306;-49
2021/12/20 01:10:37;;;;;;;11.43;6.35;;;27.80;82.90;;;;;;5058719;28;20029;-49
2021/12/20 01:13:06;;;;;;;13.65;8.02;;;27.80;83.10;;;;;;5045633;28;20059;-43
2021/12/20 01:15:43;;;;;;;14.85;10.18;;;27.70;83.70;;;;;;5044925;28;20021;-49
2021/12/20 01:18:10;;;;;;;15.32;10.98;;;27.70;83.50;;;;;;5044464;28;20032;-47
2021/12/20 01:20:37;;;;;;;15.13;11.18;;;27.70;83.70;;;;;;5044959;28;20041;-47
2021/12/20 01:23:04;;;;;;;20.23;15.80;;;27.70;83.70;;;;;;5045072;28;20025;-42
2021/12/20 01:25:31;;;;;;;19.95;15.85;;;27.70;83.90;;;;;;5044662;28;20077;-42
2021/12/20 01:27:58;;;;;;;24.30;16.80;;;27.70;84.00;;;;;;5044756;28;20079;-42
2021/12/20 01:30:26;;;;;;;25.48;16.95;;;27.60;84.10;;;;;;5045044;28;20033;-49
2021/12/20 01:32:53;;;;;;;19.55;14.70;;;27.60;84.50;;;;;;5053476;28;20051;-46
2021/12/20 01:35:24;;;;;;;20.67;13.75;;;27.60;84.40;;;;;;5044632;28;20296;-47
2021/12/20 01:37:51;;;;;;;14.43;12.15;;;27.50;84.60;;;;;;5044721;28;20029;-44
2021/12/20 01:40:19;;;;;;;17.52;12.57;;;27.50;84.60;;;;;;5046595;28;20262;-44
2021/12/20 01:42:47;;;;;;;17.92;12.85;;;27.50;85.00;;;;;;5053633;28;20022;-50
2021/12/20 01:45:18;;;;;;;20.60;12.05;;;27.40;85.10;;;;;;5044530;28;20018;-45
2021/12/20 01:47:49;;;;;;;16.03;10.30;;;27.40;85.00;;;;;;5044600;28;20041;-41
2021/12/20 01:50:25;;;;;;;13.82;8.80;;;27.40;84.80;;;;;;5044458;28;20048;-47
2021/12/20 01:52:52;;;;;;;12.65;8.63;;;27.40;84.40;;;;;;5044438;28;20037;-44
2021/12/20 01:55:20;;;;;;;15.10;7.40;;;27.40;84.20;;;;;;5044413;28;20087;-42
2021/12/20 01:57:48;;;;;;;12.13;7.35;;;27.40;84.20;;;;;;5044371;28;20034;-43
2021/12/20 02:00:20;;;;;;;15.73;6.38;;;27.30;83.80;;;;;;5044083;28;20229;-43
2021/12/20 02:02:48;;;;;;;9.73;5.25;;;27.30;83.60;;;;;;5043948;28;20041;-42
2021/12/20 02:05:23;;;;;;;13.88;6.03;;;27.30;83.50;;;;;;5044008;28;20223;-43
2021/12/20 02:08:01;;;;;;;10.40;5.05;;;27.30;83.30;;;;;;5044267;28;20033;-49
2021/12/20 02:10:28;;;;;;;38.42;6.90;;;27.30;83.40;;;;;;5044093;28;20021;-43
2021/12/20 02:12:55;;;;;;;11.45;4.82;;;27.30;83.40;;;;;;5044182;28;20040;-44
2021/12/20 02:15:22;;;;;;;11.18;5.90;;;27.20;83.50;;;;;;5044115;28;20332;-45
2021/12/20 02:17:48;;;;;;;25.13;20.60;;;27.20;83.60;;;;;;5044111;28;20045;-44
2021/12/20 02:20:28;;;;;;;10.82;9.57;;;27.20;83.60;;;;;;5043903;28;20028;-47
2021/12/20 02:22:57;;;;;;;12.80;6.38;;;27.20;83.50;;;;;;5044129;28;20032;-54
2021/12/20 02:25:25;;;;;;;12.65;6.20;;;27.20;83.00;;;;;;5055350;28;20013;-44
2021/12/20 02:27:52;;;;;;;9.82;5.57;;;27.20;83.10;;;;;;5049906;28;20056;-45
2021/12/20 02:36:53;;;;;;;11.55;5.50;;;27.20;83.00;;;;;;5049168;28;20021;-47
2021/12/20 02:38:43;;;;;;;8.50;4.78;;;27.30;82.80;;;;;;5043907;28;20079;-54
2021/12/20 02:41:20;;;;;;;8.60;5.00;;;27.30;82.60;;;;;;5043556;28;20025;-45
2021/12/20 02:43:57;;;;;;;9.77;4.82;;;27.30;82.40;;;;;;5029229;28;20324;-51
2021/12/20 02:49:00;;;;;;;7.68;4.07;;;27.30;82.00;;;;;;5043673;28;20018;-51
2021/12/20 02:51:27;;;;;;;8.65;4.28;;;27.30;81.90;;;;;;5046215;28;20108;-51
2021/12/20 02:53:57;;;;;;;9.80;4.20;;;27.30;82.00;;;;;;5051852;28;20028;-50
2021/12/20 02:56:24;;;;;;;11.00;5.13;;;27.30;81.90;;;;;;5062817;28;20021;-49
2021/12/20 02:58:52;;;;;;;7.90;5.07;;;27.30;81.50;;;;;;5046038;28;20327;-47
2021/12/20 03:01:19;;;;;;;11.07;5.00;;;27.30;81.30;;;;;;5054782;28;20249;-43
2021/12/20 03:03:48;;;;;;;7.78;4.43;;;27.30;81.20;;;;;;5059438;28;20070;-49
2021/12/20 03:06:19;;;;;;;7.30;4.60;;;27.30;81.10;;;;;;5061550;28;20098;-48
2021/12/20 03:08:50;;;;;;;8.70;4.47;;;27.30;81.00;;;;;;5049212;28;20305;-44
2021/12/20 03:11:18;;;;;;;11.02;4.20;;;27.30;80.90;;;;;;5047747;28;20022;-49
2021/12/20 03:13:49;;;;;;;7.40;4.57;;;27.30;80.90;;;;;;5049156;28;20088;-52
2021/12/20 03:16:16;;;;;;;7.00;3.95;;;27.30;80.60;;;;;;5062277;28;20024;-46
2021/12/20 03:18:43;;;;;;;10.13;3.65;;;27.30;80.50;;;;;;5057457;28;20036;-49
2021/12/20 03:21:09;;;;;;;5.85;3.65;;;27.30;80.50;;;;;;5067104;28;20020;-45
2021/12/20 03:23:36;;;;;;;12.85;3.85;;;27.30;80.40;;;;;;5067500;28;20052;-42
2021/12/20 03:26:03;;;;;;;10.10;3.70;;;27.30;80.40;;;;;;5063915;28;20017;-44
2021/12/20 03:28:30;;;;;;;8.00;3.70;;;27.30;80.20;;;;;;5060872;28;20120;-46
2021/12/20 03:30:56;;;;;;;8.23;3.65;;;27.30;80.00;;;;;;5067088;28;20021;-49
2021/12/20 03:33:23;;;;;;;9.57;3.30;;;27.30;80.00;;;;;;5067265;28;20029;-46
2021/12/20 03:35:50;;;;;;;3.78;3.10;;;27.30;79.80;;;;;;5066558;28;20040;-50
2021/12/20 03:38:16;;;;;;;5.95;3.40;;;27.30;79.70;;;;;;5057180;28;20033;-53
2021/12/20 03:40:43;;;;;;;8.25;3.53;;;27.30;79.70;;;;;;5060956;28;20268;-44
2021/12/20 03:43:12;;;;;;;8.77;3.35;;;27.30;79.60;;;;;;5058665;28;20024;-43
2021/12/20 03:45:40;;;;;;;6.53;3.58;;;27.30;79.50;;;;;;5056412;28;20029;-51
2021/12/20 03:48:07;;;;;;;7.63;3.25;;;27.30;79.50;;;;;;5055389;28;20030;-52
2021/12/20 03:50:33;;;;;;;7.88;3.50;;;27.30;79.50;;;;;;5046656;28;20017;-51
2021/12/20 03:53:00;;;;;;;6.88;3.65;;;27.30;79.30;;;;;;5046789;28;20133;-46
2021/12/20 03:55:26;;;;;;;6.82;3.33;;;27.30;79.30;;;;;;5046567;28;20044;-45
2021/12/20 03:57:53;;;;;;;6.68;3.20;;;27.30;79.30;;;;;;5046605;28;20075;-53
2021/12/20 04:00:19;;;;;;;6.50;3.33;;;27.20;79.20;;;;;;5044854;28;20371;-46
2021/12/20 04:02:47;;;;;;;5.75;2.88;;;27.20;79.10;;;;;;5045504;28;20025;-46
2021/12/20 04:05:15;;;;;;;5.65;3.10;;;27.20;79.10;;;;;;5045107;28;20017;-46
2021/12/20 04:07:41;;;;;;;6.57;3.30;;;27.20;79.10;;;;;;5045747;28;20041;-51
2021/12/20 04:10:09;;;;;;;6.88;3.25;;;27.20;79.10;;;;;;5045872;28;20022;-50
2021/12/20 04:12:37;;;;;;;9.90;3.40;;;27.20;79.00;;;;;;5053588;28;20032;-46
2021/12/20 04:15:05;;;;;;;8.02;3.30;;;27.20;79.00;;;;;;5064815;28;20013;-41
2021/12/20 04:17:32;;;;;;;5.38;3.35;;;27.20;79.10;;;;;;5064239;28;20139;-46
2021/12/20 04:19:58;;;;;;;5.20;3.00;;;27.20;79.00;;;;;;5064261;28;20027;-49
2021/12/20 04:22:25;;;;;;;4.68;3.05;;;27.20;79.00;;;;;;5064091;28;20209;-49
2021/12/20 04:24:51;;;;;;;5.20;3.03;;;27.20;78.90;;;;;;5064150;28;20017;-43
2021/12/20 04:27:18;;;;;;;6.82;2.83;;;27.20;78.90;;;;;;5057368;28;20202;-46
2021/12/20 04:29:44;;;;;;;4.60;3.53;;;27.20;78.90;;;;;;5046993;28;20056;-48
2021/12/20 04:32:11;;;;;;;5.43;3.17;;;27.10;78.90;;;;;;5045717;28;20108;-48
2021/12/20 04:34:37;;;;;;;6.15;3.40;;;27.20;78.90;;;;;;5045706;28;20206;-46
2021/12/20 04:37:06;;;;;;;6.97;3.10;;;27.10;78.80;;;;;;5045471;28;20018;-45
2021/12/20 04:39:33;;;;;;;5.22;3.20;;;27.10;78.80;;;;;;5045561;28;20017;-52
2021/12/20 04:42:00;;;;;;;12.93;3.72;;;27.10;78.70;;;;;;5045567;28;20045;-48
2021/12/20 04:44:27;;;;;;;5.50;2.90;;;27.10;78.80;;;;;;5045196;28;20013;-48
2021/12/20 04:46:53;;;;;;;6.78;3.33;;;27.10;78.80;;;;;;5050349;28;20021;-50
2021/12/20 04:49:20;;;;;;;6.35;3.10;;;27.10;78.80;;;;;;5065373;28;20020;-46
2021/12/20 04:51:47;;;;;;;6.85;3.35;;;27.10;78.70;;;;;;5065250;28;20021;-45
2021/12/20 04:54:14;;;;;;;9.43;3.00;;;27.10;78.70;;;;;;5064437;28;20032;-54
2021/12/20 04:56:40;;;;;;;5.03;2.92;;;27.00;78.60;;;;;;5060377;28;20336;-49
2021/12/20 04:59:07;;;;;;;6.28;3.17;;;27.10;78.70;;;;;;5059432;28;20032;-42
2021/12/20 05:01:33;;;;;;;5.82;3.10;;;27.00;78.60;;;;;;5049562;28;20021;-55
2021/12/20 05:04:00;;;;;;;6.03;3.25;;;27.00;78.50;;;;;;5045628;28;20030;-42
2021/12/20 05:06:26;;;;;;;4.88;3.20;;;27.00;78.50;;;;;;5045011;28;20041;-45
2021/12/20 05:08:55;;;;;;;6.32;3.35;;;27.00;78.40;;;;;;5045500;28;20255;-48
2021/12/20 05:11:23;;;;;;;6.75;3.55;;;27.00;78.50;;;;;;5052219;28;20029;-51
2021/12/20 05:13:49;;;;;;;10.88;3.97;;;27.00;78.40;;;;;;5065290;28;20301;-48
2021/12/20 05:16:16;;;;;;;7.75;3.40;;;27.00;78.40;;;;;;5064708;28;20052;-42
2021/12/20 05:18:43;;;;;;;6.10;3.75;;;27.00;78.50;;;;;;5063859;28;20016;-51
2021/12/20 05:21:10;;;;;;;6.15;3.60;;;27.00;78.60;;;;;;5060459;28;20402;-48
2021/12/20 05:23:36;;;;;;;8.73;3.70;;;27.00;78.70;;;;;;5056338;28;20025;-48
2021/12/20 05:26:03;;;;;;;6.72;3.58;;;27.00;78.80;;;;;;5064737;28;20013;-49
2021/12/20 05:28:29;;;;;;;6.80;3.97;;;26.90;78.90;;;;;;5064553;28;20116;-51
2021/12/20 05:30:56;;;;;;;7.13;4.03;;;26.90;79.00;;;;;;5064669;28;20237;-50
2021/12/20 05:33:23;;;;;;;8.57;4.47;;;26.90;79.70;;;;;;5064798;28;20025;-44
2021/12/20 05:35:50;;;;;;;11.13;5.35;;;26.90;79.20;;;;;;5064559;28;20017;-49
2021/12/20 05:38:17;;;;;;;7.78;5.47;;;26.90;79.10;;;;;;5063960;28;20048;-48
2021/12/20 05:40:44;;;;;;;11.68;4.80;;;26.90;79.10;;;;;;5064528;28;20209;-52
2021/12/20 05:43:10;;;;;;;7.60;4.30;;;26.90;79.00;;;;;;5064764;28;20017;-45
2021/12/20 05:45:37;;;;;;;8.35;4.10;;;26.90;78.90;;;;;;5064345;28;20021;-53
2021/12/20 05:48:04;;;;;;;10.70;3.90;;;26.90;78.90;;;;;;5064462;28;20029;-53
2021/12/20 05:50:31;;;;;;;9.73;3.90;;;26.90;78.90;;;;;;5064391;28;20029;-40
2021/12/20 05:52:57;;;;;;;7.90;3.60;;;26.90;78.80;;;;;;5064345;28;20196;-46
2021/12/20 05:55:24;;;;;;;6.97;3.80;;;26.90;78.80;;;;;;5064322;28;20052;-45
2021/12/20 05:57:51;;;;;;;7.90;3.70;;;26.90;78.80;;;;;;5063401;28;20213;-48
2021/12/20 06:00:19;;;;;;;7.80;3.60;;;26.80;78.70;;;;;;5064051;28;20338;-41
2021/12/20 06:02:48;;;;;;;8.48;4.13;;;26.80;78.80;;;;;;5064261;28;20298;-41
2021/12/20 06:05:15;;;;;;;6.50;3.20;;;26.80;78.70;;;;;;5064112;28;20032;-56
2021/12/20 06:07:42;;;;;;;8.02;3.90;;;26.80;78.70;;;;;;5064073;28;20078;-46
2021/12/20 06:10:16;;;;;;;8.20;3.47;;;26.80;78.50;;;;;;5063941;28;20305;-55
2021/12/20 06:12:44;;;;;;;9.50;3.20;;;26.80;78.50;;;;;;5063937;28;20037;-49
2021/12/20 06:15:12;;;;;;;9.75;3.60;;;26.80;78.50;;;;;;5063857;28;20020;-46
2021/12/20 06:17:39;;;;;;;9.20;2.85;;;26.80;78.50;;;;;;5063699;28;20313;-51
2021/12/20 06:20:08;;;;;;;6.78;3.42;;;26.80;78.50;;;;;;5063754;28;20016;-42
2021/12/20 06:22:35;;;;;;;5.05;3.28;;;26.80;78.40;;;;;;5064094;28;20025;-48
2021/12/20 06:25:01;;;;;;;7.75;2.90;;;26.70;78.40;;;;;;5063805;28;20024;-46
2021/12/20 06:27:28;;;;;;;7.82;3.08;;;26.70;78.30;;;;;;5062353;28;20021;-43
2021/12/20 06:29:55;;;;;;;8.73;2.90;;;26.70;78.30;;;;;;5063859;28;20075;-51
2021/12/20 06:32:21;;;;;;;5.25;3.13;;;26.70;78.30;;;;;;5064031;28;20025;-46
2021/12/20 06:34:48;;;;;;;5.40;3.40;;;26.70;78.80;;;;;;5063694;28;20051;-46
2021/12/20 06:37:15;;;;;;;9.60;3.40;;;26.70;78.50;;;;;;5063642;28;20029;-50
2021/12/20 06:39:41;;;;;;;6.82;3.40;;;26.70;78.70;;;;;;5063646;28;20021;-48
2021/12/20 06:42:08;;;;;;;6.82;3.03;;;26.70;78.80;;;;;;5063534;28;20017;-48
2021/12/20 06:44:35;;;;;;;3.95;3.00;;;26.70;78.80;;;;;;5063770;28;20067;-47
2021/12/20 06:47:01;;;;;;;8.23;3.13;;;26.70;78.90;;;;;;5063522;28;20036;-48
2021/12/20 06:49:28;;;;;;;7.35;3.28;;;26.70;78.90;;;;;;5064653;28;20066;-49
2021/12/20 06:51:59;;;;;;;7.32;3.22;;;26.60;78.90;;;;;;5067564;28;20048;-45
2021/12/20 06:54:26;;;;;;;5.18;3.20;;;26.60;78.90;;;;;;5067621;28;20025;-47
2021/12/20 06:56:53;;;;;;;6.13;2.92;;;26.60;78.90;;;;;;5067313;28;20044;-48
2021/12/20 06:59:19;;;;;;;8.48;3.30;;;26.60;78.80;;;;;;5067514;28;20021;-50
2021/12/20 07:01:46;;;;;;;4.70;2.80;;;26.60;78.90;;;;;;5067470;28;20017;-47
2021/12/20 07:04:12;;;;;;;6.95;2.95;;;26.60;78.90;;;;;;5067336;28;20013;-47
2021/12/20 07:06:39;;;;;;;7.13;2.65;;;26.60;78.90;;;;;;5067296;28;20029;-41
2021/12/20 07:09:07;;;;;;;8.30;2.97;;;26.60;78.90;;;;;;5067784;28;20294;-47
2021/12/20 07:11:34;;;;;;;6.38;3.00;;;26.60;78.90;;;;;;5067257;28;20091;-45
2021/12/20 07:14:01;;;;;;;6.68;3.20;;;26.60;79.10;;;;;;5067560;28;20021;-48
2021/12/20 07:16:32;;;;;;;5.60;2.90;;;26.60;79.10;;;;;;5067037;28;20029;-54
2021/12/20 07:18:59;;;;;;;9.80;3.30;;;26.60;78.80;;;;;;5067575;28;20032;-53
2021/12/20 07:21:26;;;;;;;4.72;3.13;;;26.50;78.80;;;;;;5067128;28;20100;-42
2021/12/20 07:23:53;;;;;;;6.97;2.92;;;26.50;79.00;;;;;;5067515;28;20316;-48
2021/12/20 07:26:19;;;;;;;6.07;3.00;;;26.50;79.60;;;;;;5066400;28;20028;-56
2021/12/20 07:28:46;;;;;;;4.57;3.17;;;26.50;79.20;;;;;;5067026;28;20072;-44
2021/12/20 07:31:13;;;;;;;7.93;3.17;;;26.50;79.40;;;;;;5067018;28;20080;-50
2021/12/20 07:33:41;;;;;;;7.85;2.97;;;26.50;79.50;;;;;;5067227;28;20033;-48
2021/12/20 07:36:08;;;;;;;5.82;3.22;;;26.50;79.50;;;;;;5067043;28;20156;-50
2021/12/20 07:38:36;;;;;;;5.30;2.80;;;26.50;79.60;;;;;;5067110;28;20064;-47
2021/12/20 07:41:03;;;;;;;5.78;2.80;;;26.50;79.70;;;;;;5066701;28;20096;-51
2021/12/20 07:43:30;;;;;;;5.65;2.80;;;26.50;79.60;;;;;;5067031;28;20031;-45
2021/12/20 07:45:57;;;;;;;6.00;3.05;;;26.40;79.50;;;;;;5066623;28;20017;-49
2021/12/20 07:48:24;;;;;;;10.05;2.85;;;26.40;79.60;;;;;;5066559;28;20029;-45
2021/12/20 07:50:51;;;;;;;11.02;3.45;;;26.40;79.50;;;;;;5066469;28;20225;-45
2021/12/20 07:53:18;;;;;;;5.63;3.85;;;26.40;79.40;;;;;;5066830;28;20031;-45
2021/12/20 07:55:45;;;;;;;8.40;4.10;;;26.40;79.40;;;;;;5066519;28;20023;-45
2021/12/20 07:58:12;;;;;;;5.43;3.60;;;26.40;79.40;;;;;;5066531;28;20037;-50
2021/12/20 08:00:38;;;;;;;5.82;3.50;;;26.40;79.40;;;;;;5065855;28;20201;-49
2021/12/20 08:03:05;;;;;;;6.38;3.72;;;26.40;79.50;;;;;;5066394;28;20031;-45
2021/12/20 08:05:32;;;;;;;5.53;3.15;;;26.40;79.50;;;;;;5066172;28;20313;-45
2021/12/20 08:07:59;;;;;;;7.10;3.40;;;26.40;79.60;;;;;;5066477;28;20100;-46
2021/12/20 08:10:29;;;;;;;9.10;3.30;;;26.30;79.60;;;;;;5066213;28;20021;-44
2021/12/20 08:12:56;;;;;;;6.70;3.10;;;26.40;79.80;;;;;;5066189;28;20025;-49
2021/12/20 08:15:26;;;;;;;4.55;2.88;;;26.30;79.80;;;;;;5066361;28;20032;-49
2021/12/20 08:17:53;;;;;;;7.25;2.97;;;26.30;79.90;;;;;;5066038;28;20033;-48
2021/12/20 08:20:19;;;;;;;5.32;2.88;;;26.30;80.00;;;;;;5065899;28;20017;-42
2021/12/20 08:22:47;;;;;;;7.55;2.97;;;26.30;80.00;;;;;;5066007;28;20025;-49
2021/12/20 08:25:15;;;;;;;5.70;3.22;;;26.30;80.10;;;;;;5065918;28;20270;-44
2021/12/20 08:27:42;;;;;;;6.65;2.80;;;26.30;80.20;;;;;;5065734;28;20059;-48
2021/12/20 08:30:09;;;;;;;6.32;3.03;;;26.30;80.30;;;;;;5065837;28;20339;-49
2021/12/20 08:32:39;;;;;;;6.10;2.97;;;26.30;80.40;;;;;;5065789;28;20071;-45
2021/12/20 08:35:07;;;;;;;6.07;3.10;;;26.30;80.30;;;;;;5065778;28;20036;-48
2021/12/20 08:37:35;;;;;;;4.88;2.70;;;26.30;81.00;;;;;;5065471;28;20032;-43
2021/12/20 08:40:02;;;;;;;7.68;2.88;;;26.30;80.50;;;;;;5065561;28;20204;-48
2021/12/20 08:42:29;;;;;;;4.13;2.75;;;26.20;80.50;;;;;;5065894;28;20036;-47
2021/12/20 08:44:56;;;;;;;5.28;3.30;;;26.30;80.60;;;;;;5065786;28;20217;-50
2021/12/20 08:47:23;;;;;;;6.63;2.88;;;26.30;80.60;;;;;;5065523;28;20313;-52
2021/12/20 08:49:49;;;;;;;5.47;2.70;;;26.30;80.60;;;;;;5065418;28;20104;-48
2021/12/20 08:52:17;;;;;;;7.05;2.78;;;26.20;80.40;;;;;;5065428;28;20293;-46
2021/12/20 08:54:43;;;;;;;6.50;2.85;;;26.20;80.60;;;;;;5065395;28;20225;-51
2021/12/20 08:57:10;;;;;;;11.13;3.03;;;26.20;80.60;;;;;;5065187;28;20021;-45
2021/12/20 08:59:37;;;;;;;54.95;6.63;;;26.20;80.60;;;;;;5065219;28;20083;-48
2021/12/20 09:02:07;;;;;;;86.60;9.35;;;26.20;80.50;;;;;;5065192;28;20051;-43
2021/12/20 09:04:34;;;;;;;68.55;8.18;;;26.20;80.70;;;;;;5065153;28;20043;-45
2021/12/20 09:07:01;;;;;;;68.82;7.20;;;26.20;80.90;;;;;;5064993;28;20097;-44
2021/12/20 09:09:29;;;;;;;103.13;11.15;;;26.20;81.00;;;;;;5065081;28;20072;-47
2021/12/20 09:11:55;;;;;;;101.35;10.82;;;26.10;80.90;;;;;;5064883;28;20033;-42
2021/12/20 09:14:22;;;;;;;89.45;10.32;;;26.10;81.00;;;;;;5063772;28;20021;-49
2021/12/20 09:16:48;;;;;;;90.60;10.10;;;26.10;81.00;;;;;;5064876;28;20104;-46
2021/12/20 09:19:15;;;;;;;74.95;8.88;;;26.10;80.90;;;;;;5065338;28;20025;-46
2021/12/20 09:21:42;;;;;;;83.20;9.00;;;26.10;80.90;;;;;;5064781;28;20017;-46
2021/12/20 09:24:09;;;;;;;92.78;10.43;;;26.10;81.00;;;;;;5065393;28;20045;-46
2021/12/20 09:26:36;;;;;;;67.53;8.93;;;26.00;80.90;;;;;;5064647;28;20024;-57
2021/12/20 09:29:02;;;;;;;48.42;7.10;;;26.00;81.00;;;;;;5064589;28;20107;-44
2021/12/20 09:31:29;;;;;;;53.30;7.22;;;26.00;81.20;;;;;;5064681;28;20025;-45
2021/12/20 09:33:56;;;;;;;131.43;11.82;;;26.00;81.30;;;;;;5064907;28;20032;-46
2021/12/20 09:36:29;;;;;;;104.57;12.07;;;26.00;81.40;;;;;;5064417;28;20017;-49
2021/12/20 09:39:00;;;;;;;126.70;14.10;;;26.00;81.50;;;;;;5064923;28;20028;-47
2021/12/20 09:42:00;;;;;;;108.80;12.75;;;26.00;81.60;;;;;;5064541;28;20044;-48
2021/12/20 09:44:21;;;;;;;104.50;11.48;;;26.00;81.70;;;;;;5064702;28;20029;-53
2021/12/20 09:46:49;;;;;;;90.20;11.13;;;26.00;81.80;;;;;;5064315;28;20031;-50
2021/12/20 09:49:19;;;;;;;75.03;8.93;;;26.00;81.90;;;;;;5064557;28;20100;-45
2021/12/20 09:51:45;;;;;;;59.28;7.60;;;25.90;82.10;;;;;;5064177;28;20028;-47
2021/12/20 09:54:12;;;;;;;42.03;5.97;;;25.90;82.10;;;;;;5064794;28;20033;-42
2021/12/20 09:56:39;;;;;;;22.33;4.72;;;25.90;82.20;;;;;;5064124;28;20071;-51
2021/12/20 09:59:09;;;;;;;17.83;4.57;;;25.90;82.30;;;;;;5063959;28;20048;-45
2021/12/20 10:01:36;;;;;;;20.90;4.68;;;25.90;82.50;;;;;;5064110;28;20020;-47
2021/12/20 10:04:04;;;;;;;20.95;6.28;;;25.90;82.50;;;;;;5064583;28;20213;-47
2021/12/20 10:06:31;;;;;;;20.33;7.15;;;25.90;82.80;;;;;;5063942;28;20025;-49
2021/12/20 10:09:09;;;;;;;26.42;7.57;;;25.90;82.90;;;;;;5063924;28;20036;-45
2021/12/20 10:11:37;;;;;;;18.75;6.85;;;25.90;83.10;;;;;;5063819;28;20025;-49
2021/12/20 10:14:06;;;;;;;17.73;6.80;;;25.80;83.70;;;;;;5064265;28;20037;-44
2021/12/20 10:16:34;;;;;;;18.67;6.05;;;25.80;83.30;;;;;;5063808;28;20217;-51
2021/12/20 10:19:02;;;;;;;18.58;5.43;;;25.80;83.50;;;;;;5063684;28;20088;-51
2021/12/20 10:21:40;;;;;;;17.35;5.32;;;25.80;83.60;;;;;;5063895;28;20268;-50
2021/12/20 10:24:07;;;;;;;13.02;4.45;;;25.80;83.70;;;;;;5063825;28;20044;-46
2021/12/20 10:26:42;;;;;;;9.75;4.18;;;25.80;83.70;;;;;;5063995;28;20210;-48
2021/12/20 10:29:20;;;;;;;14.35;4.07;;;25.80;83.80;;;;;;5063598;28;20237;-55
2021/12/20 10:31:47;;;;;;;12.00;3.92;;;25.80;84.00;;;;;;5063624;28;20032;-44
2021/12/20 10:34:14;;;;;;;8.40;4.00;;;25.80;84.00;;;;;;5064196;28;20025;-54
2021/12/20 10:36:56;;;;;;;9.95;3.40;;;25.80;83.90;;;;;;5063547;28;20032;-53
2021/12/20 10:39:47;;;;;;;8.40;3.90;;;25.80;84.00;;;;;;5063699;28;20088;-52
2021/12/20 10:42:27;;;;;;;5.85;3.75;;;25.80;84.00;;;;;;5063743;28;20175;-46
2021/12/20 10:45:15;;;;;;;6.88;3.33;;;25.80;84.00;;;;;;5063860;28;20084;-48
2021/12/20 10:47:44;;;;;;;7.07;3.63;;;25.80;84.10;;;;;;5063732;28;20044;-48
2021/12/20 10:50:20;;;;;;;9.57;3.58;;;25.80;84.10;;;;;;5063614;28;20067;-49
2021/12/20 10:52:47;;;;;;;5.78;3.83;;;25.80;83.90;;;;;;5063596;28;20032;-44
2021/12/20 10:55:14;;;;;;;8.60;3.63;;;25.80;83.70;;;;;;5063516;28;20127;-48
2021/12/20 10:57:40;;;;;;;7.32;3.67;;;25.80;83.50;;;;;;5063303;28;20033;-48
2021/12/20 11:00:19;;;;;;;9.50;3.65;;;25.80;83.20;;;;;;5063405;28;20200;-50
2021/12/20 11:03:24;;;;;;;5.53;3.10;;;25.80;82.90;;;;;;5061051;28;20084;-45
2021/12/20 11:06:26;;;;;;;4.70;3.15;;;25.80;82.40;;;;;;5063661;28;20022;-50
2021/12/20 11:11:28;;;;;;;6.65;3.28;;;25.80;82.40;;;;;;5063406;28;20147;-47
2021/12/20 11:13:55;;;;;;;5.18;3.45;;;25.80;82.30;;;;;;5063637;28;20179;-53
2021/12/20 11:16:26;;;;;;;5.75;3.55;;;25.80;82.30;;;;;;5063190;28;20088;-52
2021/12/20 11:19:09;;;;;;;10.35;3.80;;;25.80;82.30;;;;;;5063227;28;20276;-48
2021/12/20 11:21:37;;;;;;;10.07;3.90;;;25.80;82.40;;;;;;5063382;28;20309;-53
2021/12/20 11:24:12;;;;;;;6.95;3.75;;;25.80;82.30;;;;;;5063697;28;20256;-43
2021/12/20 11:26:39;;;;;;;8.75;3.70;;;25.80;82.10;;;;;;5063363;28;20028;-55
2021/12/20 11:29:06;;;;;;;6.78;3.80;;;25.80;82.00;;;;;;5063133;28;20048;-45
2021/12/20 11:31:33;;;;;;;8.23;3.85;;;25.80;81.70;;;;;;5062611;28;20047;-45
2021/12/20 11:34:01;;;;;;;4.57;3.47;;;25.80;81.50;;;;;;5063458;28;20029;-46
2021/12/20 11:36:27;;;;;;;6.82;4.15;;;25.80;81.20;;;;;;5064122;28;20037;-52
2021/12/20 11:38:58;;;;;;;6.43;3.88;;;25.80;81.10;;;;;;5067340;28;20025;-49
2021/12/20 11:41:28;;;;;;;6.50;4.30;;;25.80;81.20;;;;;;5067091;28;20021;-54
2021/12/20 11:43:56;;;;;;;8.70;4.18;;;25.80;81.00;;;;;;5067142;28;20021;-55
2021/12/20 11:46:28;;;;;;;6.53;4.00;;;25.80;80.90;;;;;;5066563;28;20017;-47
2021/12/20 11:48:57;;;;;;;7.15;4.10;;;25.80;80.80;;;;;;5066637;28;20020;-49
2021/12/20 11:51:24;;;;;;;6.28;4.10;;;25.90;81.00;;;;;;5066551;28;20029;-52
2021/12/20 11:53:51;;;;;;;9.68;4.40;;;25.80;80.90;;;;;;5065482;28;20086;-43
2021/12/20 11:56:34;;;;;;;7.68;4.25;;;25.90;81.10;;;;;;5066408;28;20036;-41
2021/12/20 11:59:01;;;;;;;8.57;4.20;;;25.80;80.80;;;;;;5066792;28;20017;-46
2021/12/20 12:01:27;;;;;;;11.60;4.90;;;25.80;81.00;;;;;;5066400;28;20305;-43
2021/12/20 12:03:57;;;;;;;9.80;5.20;;;25.80;81.10;;;;;;5066834;28;20029;-49
2021/12/20 12:06:26;;;;;;;10.70;5.53;;;25.90;81.20;;;;;;5066418;28;20021;-45
2021/12/20 12:08:59;;;;;;;9.75;5.75;;;25.90;81.20;;;;;;5066656;28;20193;-48
2021/12/20 12:11:25;;;;;;;10.55;5.70;;;25.90;81.30;;;;;;5065834;28;20058;-47
2021/12/20 12:16:57;;;;;;;9.30;4.47;;;25.90;81.50;;;;;;5054738;28;20009;-46
2021/12/20 12:19:37;;;;;;;7.22;4.60;;;25.90;81.40;;;;;;5061178;28;20218;-50
2021/12/20 12:22:23;;;;;;;9.75;4.35;;;25.90;81.10;;;;;;5066041;28;20009;-45
2021/12/20 12:24:51;;;;;;;12.50;4.95;;;25.90;81.30;;;;;;5065096;28;20024;-50
2021/12/20 12:27:27;;;;;;;10.27;4.80;;;25.90;81.30;;;;;;5065835;28;20088;-51
2021/12/20 12:30:14;;;;;;;9.95;5.63;;;25.90;81.30;;;;;;5065942;28;20024;-48
2021/12/20 12:32:50;;;;;;;14.70;5.80;;;25.90;81.30;;;;;;5065391;28;20195;-52
2021/12/20 12:35:42;;;;;;;12.57;5.57;;;25.90;81.30;;;;;;5050386;28;20301;-48
2021/12/20 12:38:14;;;;;;;14.38;6.97;;;25.90;81.80;;;;;;5065819;28;20072;-42
2021/12/20 12:40:42;;;;;;;18.13;6.50;;;25.90;82.20;;;;;;5065601;28;20048;-45
2021/12/20 12:43:09;;;;;;;14.18;6.97;;;26.00;82.50;;;;;;5065740;28;20217;-50
2021/12/20 12:45:53;;;;;;;19.00;7.47;;;25.90;82.60;;;;;;5065594;28;20029;-48
2021/12/20 12:48:37;;;;;;;12.93;7.20;;;26.00;83.00;;;;;;5065632;28;20039;-49
2021/12/20 12:51:19;;;;;;;11.27;5.68;;;26.00;83.70;;;;;;5065494;28;20024;-47
2021/12/20 12:53:54;;;;;;;11.10;5.82;;;26.00;83.40;;;;;;5065871;28;20025;-48
2021/12/20 12:56:26;;;;;;;17.17;6.75;;;26.00;83.60;;;;;;5065559;28;20304;-46
2021/12/20 12:59:14;;;;;;;10.63;5.82;;;26.00;83.60;;;;;;5065725;28;20028;-45
2021/12/20 13:01:57;;;;;;;10.48;5.40;;;26.00;83.70;;;;;;5065255;28;20028;-51
2021/12/20 13:04:53;;;;;;;16.02;5.93;;;26.00;83.80;;;;;;5064514;28;20029;-50
2021/12/20 13:07:42;;;;;;;11.20;5.10;;;26.00;83.90;;;;;;5039786;28;20064;-49